sensor_id;sensor_type;location;lat;lon;timestamp;pressure;altitude;pressure_sealevel;temperature;humidity
70242;BME280;57631;52.218;0.108;2022-10-31T00:02:03;101652.68;;;13.67;75.94
70242;BME280;57631;52.218;0.108;2022-10-31T00:04:29;101650.69;;;14.07;75.81
70242;BME280;57631;52.218;0.108;2022-10-31T00:06:54;101654.56;;;15.10;72.53
70242;BME280;57631;52.218;0.108;2022-10-31T00:09:20;101662.58;;;12.45;81.21
70242;BME280;57631;52.218;0.108;2022-10-31T00:11:45;101658.48;;;13.82;76.69
70242;BME280;57631;52.218;0.108;2022-10-31T00:14:11;101653.38;;;14.50;74.04
70242;BME280;57631;52.218;0.108;2022-10-31T00:16:36;101658.95;;;13.72;75.59
70242;BME280;57631;52.218;0.108;2022-10-31T00:19:03;101660.05;;;13.07;78.87
70242;BME280;57631;52.218;0.108;2022-10-31T00:21:28;101661.96;;;13.82;78.13
70242;BME280;57631;52.218;0.108;2022-10-31T00:23:52;101657.49;;;12.84;79.45
70242;BME280;57631;52.218;0.108;2022-10-31T00:26:17;101657.77;;;13.59;78.07
70242;BME280;57631;52.218;0.108;2022-10-31T00:28:42;101655.63;;;14.07;74.95
70242;BME280;57631;52.218;0.108;2022-10-31T00:31:09;101656.33;;;12.77;79.60
70242;BME280;57631;52.218;0.108;2022-10-31T00:33:34;101656.09;;;13.78;77.03
70242;BME280;57631;52.218;0.108;2022-10-31T00:35:58;101656.92;;;12.48;82.31
70242;BME280;57631;52.218;0.108;2022-10-31T00:38:24;101656.55;;;13.58;79.45
70242;BME280;57631;52.218;0.108;2022-10-31T00:40:50;101663.17;;;12.04;82.41
70242;BME280;57631;52.218;0.108;2022-10-31T00:43:15;101656.77;;;13.17;79.23
70242;BME280;57631;52.218;0.108;2022-10-31T00:45:41;101650.74;;;14.37;74.75
70242;BME280;57631;52.218;0.108;2022-10-31T00:48:05;101648.26;;;12.50;80.56
70242;BME280;57631;52.218;0.108;2022-10-31T00:50:31;101649.86;;;12.76;79.71
70242;BME280;57631;52.218;0.108;2022-10-31T00:52:56;101654.66;;;12.76;82.29
70242;BME280;57631;52.218;0.108;2022-10-31T00:55:21;101652.59;;;13.09;79.24
70242;BME280;57631;52.218;0.108;2022-10-31T00:57:47;101652.56;;;14.77;73.15
70242;BME280;57631;52.218;0.108;2022-10-31T01:00:13;101651.06;;;15.56;69.61
70242;BME280;57631;52.218;0.108;2022-10-31T01:02:37;101651.60;;;15.08;71.19
70242;BME280;57631;52.218;0.108;2022-10-31T01:05:03;101649.70;;;15.10;71.65
70242;BME280;57631;52.218;0.108;2022-10-31T01:07:28;101648.33;;;15.52;70.88
70242;BME280;57631;52.218;0.108;2022-10-31T01:09:53;101647.34;;;15.32;69.59
70242;BME280;57631;52.218;0.108;2022-10-31T01:12:18;101649.97;;;15.95;66.86
70242;BME280;57631;52.218;0.108;2022-10-31T01:14:44;101646.23;;;15.06;69.71
70242;BME280;57631;52.218;0.108;2022-10-31T01:17:09;101647.91;;;15.39;67.73
70242;BME280;57631;52.218;0.108;2022-10-31T01:19:35;101642.83;;;15.27;68.93
70242;BME280;57631;52.218;0.108;2022-10-31T01:22:00;101641.46;;;15.13;71.26
70242;BME280;57631;52.218;0.108;2022-10-31T01:24:26;101638.88;;;15.05;68.83
70242;BME280;57631;52.218;0.108;2022-10-31T01:26:51;101639.27;;;16.14;66.83
70242;BME280;57631;52.218;0.108;2022-10-31T01:29:17;101635.89;;;15.47;70.09
70242;BME280;57631;52.218;0.108;2022-10-31T01:31:42;101632.21;;;15.52;70.18
70242;BME280;57631;52.218;0.108;2022-10-31T01:34:13;101634.54;;;15.08;70.64
70242;BME280;57631;52.218;0.108;2022-10-31T01:36:35;101637.10;;;15.19;70.02
70242;BME280;57631;52.218;0.108;2022-10-31T01:39:03;101643.03;;;13.84;75.42
70242;BME280;57631;52.218;0.108;2022-10-31T01:41:27;101639.90;;;15.24;70.75
70242;BME280;57631;52.218;0.108;2022-10-31T01:43:52;101642.63;;;12.39;80.24
70242;BME280;57631;52.218;0.108;2022-10-31T01:46:17;101638.40;;;12.75;81.66
70242;BME280;57631;52.218;0.108;2022-10-31T01:48:41;101635.83;;;13.42;78.79
70242;BME280;57631;52.218;0.108;2022-10-31T01:51:08;101630.61;;;14.15;76.57
70242;BME280;57631;52.218;0.108;2022-10-31T01:53:32;101628.33;;;14.30;75.27
70242;BME280;57631;52.218;0.108;2022-10-31T01:55:58;101630.52;;;14.52;74.72
70242;BME280;57631;52.218;0.108;2022-10-31T01:58:25;101628.56;;;12.94;80.79
70242;BME280;57631;52.218;0.108;2022-10-31T02:00:51;101629.80;;;13.71;77.36
70242;BME280;57631;52.218;0.108;2022-10-31T02:03:13;101626.12;;;13.21;78.79
70242;BME280;57631;52.218;0.108;2022-10-31T02:05:39;101622.38;;;13.97;76.38
70242;BME280;57631;52.218;0.108;2022-10-31T02:08:06;101626.92;;;13.67;77.15
70242;BME280;57631;52.218;0.108;2022-10-31T02:10:30;101622.83;;;14.24;74.79
70242;BME280;57631;52.218;0.108;2022-10-31T02:12:57;101628.99;;;13.17;78.50
70242;BME280;57631;52.218;0.108;2022-10-31T02:15:20;101626.66;;;14.49;75.37
70242;BME280;57631;52.218;0.108;2022-10-31T02:17:46;101622.82;;;15.10;72.83
70242;BME280;57631;52.218;0.108;2022-10-31T02:20:15;101618.02;;;15.61;70.16
70242;BME280;57631;52.218;0.108;2022-10-31T02:22:42;101618.82;;;14.62;71.88
70242;BME280;57631;52.218;0.108;2022-10-31T02:25:13;101619.85;;;15.53;71.25
70242;BME280;57631;52.218;0.108;2022-10-31T02:30:03;101625.69;;;14.47;74.15
70242;BME280;57631;52.218;0.108;2022-10-31T02:32:23;101621.93;;;14.05;74.23
70242;BME280;57631;52.218;0.108;2022-10-31T02:34:51;101623.18;;;13.78;76.22
70242;BME280;57631;52.218;0.108;2022-10-31T02:37:13;101625.01;;;13.48;77.76
70242;BME280;57631;52.218;0.108;2022-10-31T02:39:37;101622.45;;;13.93;75.93
70242;BME280;57631;52.218;0.108;2022-10-31T02:42:07;101620.17;;;14.19;76.12
70242;BME280;57631;52.218;0.108;2022-10-31T02:44:29;101620.39;;;15.27;72.71
70242;BME280;57631;52.218;0.108;2022-10-31T02:46:54;101617.47;;;14.51;73.70
70242;BME280;57631;52.218;0.108;2022-10-31T02:49:22;101625.34;;;13.29;76.71
70242;BME280;57631;52.218;0.108;2022-10-31T02:51:41;101617.57;;;14.92;73.34
70242;BME280;57631;52.218;0.108;2022-10-31T02:56:32;101614.76;;;14.53;75.92
70242;BME280;57631;52.218;0.108;2022-10-31T02:59:01;101619.52;;;13.55;79.24
70242;BME280;57631;52.218;0.108;2022-10-31T03:03:59;101621.55;;;13.52;81.01
70242;BME280;57631;52.218;0.108;2022-10-31T03:06:19;101612.06;;;14.31;75.36
70242;BME280;57631;52.218;0.108;2022-10-31T03:08:45;101619.04;;;11.81;90.12
70242;BME280;57631;52.218;0.108;2022-10-31T03:11:05;101617.39;;;13.63;80.48
70242;BME280;57631;52.218;0.108;2022-10-31T03:13:34;101614.10;;;13.24;80.13
70242;BME280;57631;52.218;0.108;2022-10-31T03:16:02;101604.46;;;13.95;77.79
70242;BME280;57631;52.218;0.108;2022-10-31T03:18:26;101598.66;;;14.77;74.65
70242;BME280;57631;52.218;0.108;2022-10-31T03:20:50;101598.52;;;14.73;74.72
70242;BME280;57631;52.218;0.108;2022-10-31T03:23:14;101600.80;;;14.21;77.03
70242;BME280;57631;52.218;0.108;2022-10-31T03:25:37;101605.11;;;13.68;78.33
70242;BME280;57631;52.218;0.108;2022-10-31T03:28:03;101597.16;;;14.33;76.69
70242;BME280;57631;52.218;0.108;2022-10-31T03:30:28;101594.83;;;14.61;75.78
70242;BME280;57631;52.218;0.108;2022-10-31T03:32:55;101598.66;;;14.75;74.50
70242;BME280;57631;52.218;0.108;2022-10-31T03:35:20;101592.21;;;14.73;74.85
70242;BME280;57631;52.218;0.108;2022-10-31T03:37:44;101591.34;;;14.49;75.43
70242;BME280;57631;52.218;0.108;2022-10-31T03:40:11;101589.85;;;13.89;76.90
70242;BME280;57631;52.218;0.108;2022-10-31T03:42:38;101593.60;;;13.56;78.65
70242;BME280;57631;52.218;0.108;2022-10-31T03:45:05;101594.50;;;14.29;77.00
70242;BME280;57631;52.218;0.108;2022-10-31T03:47:26;101599.02;;;14.95;75.75
70242;BME280;57631;52.218;0.108;2022-10-31T03:49:51;101607.11;;;12.38;84.17
70242;BME280;57631;52.218;0.108;2022-10-31T03:52:24;101608.08;;;13.10;81.98
70242;BME280;57631;52.218;0.108;2022-10-31T03:54:44;101610.36;;;13.70;79.13
70242;BME280;57631;52.218;0.108;2022-10-31T03:57:13;101606.52;;;14.18;77.97
70242;BME280;57631;52.218;0.108;2022-10-31T03:59:36;101603.46;;;12.91;81.93
70242;BME280;57631;52.218;0.108;2022-10-31T04:02:03;101603.90;;;13.55;79.79
70242;BME280;57631;52.218;0.108;2022-10-31T04:04:26;101601.07;;;13.72;79.43
70242;BME280;57631;52.218;0.108;2022-10-31T04:06:50;101605.04;;;14.59;76.31
70242;BME280;57631;52.218;0.108;2022-10-31T04:09:15;101608.90;;;14.48;77.08
70242;BME280;57631;52.218;0.108;2022-10-31T04:11:43;101612.74;;;14.16;78.16
70242;BME280;57631;52.218;0.108;2022-10-31T04:14:07;101608.14;;;13.82;79.02
70242;BME280;57631;52.218;0.108;2022-10-31T04:16:30;101609.96;;;13.37;80.56
70242;BME280;57631;52.218;0.108;2022-10-31T04:18:56;101612.22;;;13.41;81.98
70242;BME280;57631;52.218;0.108;2022-10-31T04:21:27;101604.19;;;14.53;76.97
70242;BME280;57631;52.218;0.108;2022-10-31T04:23:47;101607.41;;;14.24;77.60
70242;BME280;57631;52.218;0.108;2022-10-31T04:26:13;101609.67;;;14.26;77.53
70242;BME280;57631;52.218;0.108;2022-10-31T04:28:38;101608.80;;;14.58;76.22
70242;BME280;57631;52.218;0.108;2022-10-31T04:31:05;101607.66;;;14.93;76.34
70242;BME280;57631;52.218;0.108;2022-10-31T04:33:29;101607.33;;;14.40;76.47
70242;BME280;57631;52.218;0.108;2022-10-31T04:35:54;101608.88;;;14.01;79.06
70242;BME280;57631;52.218;0.108;2022-10-31T04:38:19;101607.28;;;14.45;77.61
70242;BME280;57631;52.218;0.108;2022-10-31T04:40:45;101609.60;;;14.92;76.53
70242;BME280;57631;52.218;0.108;2022-10-31T04:43:10;101606.90;;;14.71;75.45
70242;BME280;57631;52.218;0.108;2022-10-31T04:45:36;101607.85;;;14.74;76.22
70242;BME280;57631;52.218;0.108;2022-10-31T04:48:01;101609.25;;;15.05;76.32
70242;BME280;57631;52.218;0.108;2022-10-31T04:50:26;101605.55;;;14.42;78.94
70242;BME280;57631;52.218;0.108;2022-10-31T04:52:52;101604.32;;;14.29;78.67
70242;BME280;57631;52.218;0.108;2022-10-31T04:55:17;101601.79;;;13.22;82.37
70242;BME280;57631;52.218;0.108;2022-10-31T04:57:44;101597.95;;;13.80;80.37
70242;BME280;57631;52.218;0.108;2022-10-31T05:00:10;101590.90;;;14.86;76.54
70242;BME280;57631;52.218;0.108;2022-10-31T05:02:34;101595.25;;;14.69;77.44
70242;BME280;57631;52.218;0.108;2022-10-31T05:04:59;101608.85;;;13.44;82.26
70242;BME280;57631;52.218;0.108;2022-10-31T05:07:25;101607.90;;;13.43;81.16
70242;BME280;57631;52.218;0.108;2022-10-31T05:09:50;101598.24;;;14.73;77.20
70242;BME280;57631;52.218;0.108;2022-10-31T05:12:16;101595.98;;;15.07;77.36
70242;BME280;57631;52.218;0.108;2022-10-31T05:14:41;101587.74;;;13.98;78.58
70242;BME280;57631;52.218;0.108;2022-10-31T05:17:07;101587.78;;;14.66;76.61
70242;BME280;57631;52.218;0.108;2022-10-31T05:19:32;101588.91;;;14.88;76.23
70242;BME280;57631;52.218;0.108;2022-10-31T05:21:57;101591.17;;;13.69;82.41
70242;BME280;57631;52.218;0.108;2022-10-31T05:24:23;101588.94;;;14.49;78.77
70242;BME280;57631;52.218;0.108;2022-10-31T05:26:49;101591.66;;;15.40;75.89
70242;BME280;57631;52.218;0.108;2022-10-31T05:29:14;101591.28;;;15.96;72.00
70242;BME280;57631;52.218;0.108;2022-10-31T05:31:39;101592.90;;;15.60;72.85
70242;BME280;57631;52.218;0.108;2022-10-31T05:34:04;101591.07;;;15.86;73.64
70242;BME280;57631;52.218;0.108;2022-10-31T05:36:29;101585.67;;;15.32;73.41
70242;BME280;57631;52.218;0.108;2022-10-31T05:38:55;101583.28;;;16.08;71.01
70242;BME280;57631;52.218;0.108;2022-10-31T05:41:20;101584.29;;;15.85;72.23
70242;BME280;57631;52.218;0.108;2022-10-31T05:43:46;101580.06;;;16.34;70.38
70242;BME280;57631;52.218;0.108;2022-10-31T05:46:11;101576.14;;;15.20;74.32
70242;BME280;57631;52.218;0.108;2022-10-31T05:48:37;101576.25;;;14.74;77.57
70242;BME280;57631;52.218;0.108;2022-10-31T05:51:02;101574.81;;;14.50;76.70
70242;BME280;57631;52.218;0.108;2022-10-31T05:53:28;101577.87;;;13.25;83.64
70242;BME280;57631;52.218;0.108;2022-10-31T05:55:53;101560.78;;;15.11;76.51
70242;BME280;57631;52.218;0.108;2022-10-31T05:58:18;101557.19;;;15.64;75.25
70242;BME280;57631;52.218;0.108;2022-10-31T06:00:44;101557.98;;;14.00;79.94
70242;BME280;57631;52.218;0.108;2022-10-31T06:03:09;101555.34;;;15.03;75.70
70242;BME280;57631;52.218;0.108;2022-10-31T06:05:34;101557.50;;;15.22;76.32
70242;BME280;57631;52.218;0.108;2022-10-31T06:08:00;101561.03;;;14.73;77.64
70242;BME280;57631;52.218;0.108;2022-10-31T06:10:26;101565.59;;;13.08;83.65
70242;BME280;57631;52.218;0.108;2022-10-31T06:12:50;101559.20;;;14.67;78.84
70242;BME280;57631;52.218;0.108;2022-10-31T06:15:16;101556.44;;;14.17;80.49
70242;BME280;57631;52.218;0.108;2022-10-31T06:17:41;101557.57;;;14.09;80.97
70242;BME280;57631;52.218;0.108;2022-10-31T06:20:08;101554.76;;;14.52;80.62
70242;BME280;57631;52.218;0.108;2022-10-31T06:22:32;101557.81;;;14.83;79.57
70242;BME280;57631;52.218;0.108;2022-10-31T06:24:57;101559.44;;;14.07;80.43
70242;BME280;57631;52.218;0.108;2022-10-31T06:27:22;101560.91;;;14.84;78.50
70242;BME280;57631;52.218;0.108;2022-10-31T06:29:48;101556.21;;;14.97;76.79
70242;BME280;57631;52.218;0.108;2022-10-31T06:32:14;101562.50;;;15.48;75.72
70242;BME280;57631;52.218;0.108;2022-10-31T06:34:40;101562.09;;;15.13;76.22
70242;BME280;57631;52.218;0.108;2022-10-31T06:37:05;101562.53;;;14.64;77.54
70242;BME280;57631;52.218;0.108;2022-10-31T06:39:30;101562.11;;;14.76;78.64
70242;BME280;57631;52.218;0.108;2022-10-31T06:41:56;101566.07;;;15.82;73.68
70242;BME280;57631;52.218;0.108;2022-10-31T06:44:21;101559.89;;;15.70;73.74
70242;BME280;57631;52.218;0.108;2022-10-31T06:46:47;101557.51;;;14.97;76.23
70242;BME280;57631;52.218;0.108;2022-10-31T06:49:12;101557.77;;;15.82;71.91
70242;BME280;57631;52.218;0.108;2022-10-31T06:51:38;101558.34;;;15.93;72.44
70242;BME280;57631;52.218;0.108;2022-10-31T06:54:03;101560.54;;;13.98;79.73
70242;BME280;57631;52.218;0.108;2022-10-31T06:56:28;101559.03;;;15.16;74.66
70242;BME280;57631;52.218;0.108;2022-10-31T06:58:53;101561.59;;;15.50;73.28
70242;BME280;57631;52.218;0.108;2022-10-31T07:01:19;101557.65;;;15.32;75.85
70242;BME280;57631;52.218;0.108;2022-10-31T07:03:44;101560.36;;;15.08;76.14
70242;BME280;57631;52.218;0.108;2022-10-31T07:06:09;101557.34;;;13.77;80.64
70242;BME280;57631;52.218;0.108;2022-10-31T07:08:35;101554.99;;;13.40;81.48
70242;BME280;57631;52.218;0.108;2022-10-31T07:11:00;101549.86;;;14.66;78.17
70242;BME280;57631;52.218;0.108;2022-10-31T07:13:26;101552.94;;;12.36;86.96
70242;BME280;57631;52.218;0.108;2022-10-31T07:15:52;101553.82;;;12.84;86.09
70242;BME280;57631;52.218;0.108;2022-10-31T07:18:16;101554.75;;;13.46;84.17
70242;BME280;57631;52.218;0.108;2022-10-31T07:20:42;101550.92;;;12.80;88.05
70242;BME280;57631;52.218;0.108;2022-10-31T07:23:09;101549.45;;;13.10;86.55
70242;BME280;57631;52.218;0.108;2022-10-31T07:25:33;101549.59;;;13.71;84.08
70242;BME280;57631;52.218;0.108;2022-10-31T07:27:59;101556.97;;;11.92;90.67
70242;BME280;57631;52.218;0.108;2022-10-31T07:30:24;101549.47;;;13.61;84.73
70242;BME280;57631;52.218;0.108;2022-10-31T07:32:50;101544.55;;;13.46;83.81
70242;BME280;57631;52.218;0.108;2022-10-31T07:35:17;101547.76;;;12.70;86.59
70242;BME280;57631;52.218;0.108;2022-10-31T07:37:41;101542.15;;;14.45;80.71
70242;BME280;57631;52.218;0.108;2022-10-31T07:40:08;101539.00;;;14.50;79.64
70242;BME280;57631;52.218;0.108;2022-10-31T07:42:34;101542.26;;;15.12;77.51
70242;BME280;57631;52.218;0.108;2022-10-31T07:44:56;101547.42;;;13.49;84.14
70242;BME280;57631;52.218;0.108;2022-10-31T07:47:22;101544.88;;;13.58;84.51
70242;BME280;57631;52.218;0.108;2022-10-31T07:49:48;101542.20;;;13.63;85.40
70242;BME280;57631;52.218;0.108;2022-10-31T07:52:13;101539.56;;;13.31;83.89
70242;BME280;57631;52.218;0.108;2022-10-31T07:54:38;101540.51;;;14.30;81.04
70242;BME280;57631;52.218;0.108;2022-10-31T07:57:04;101539.96;;;15.24;77.66
70242;BME280;57631;52.218;0.108;2022-10-31T07:59:29;101543.28;;;15.05;76.97
70242;BME280;57631;52.218;0.108;2022-10-31T08:01:55;101544.42;;;14.24;82.06
70242;BME280;57631;52.218;0.108;2022-10-31T08:04:20;101546.51;;;13.97;80.06
70242;BME280;57631;52.218;0.108;2022-10-31T08:06:46;101542.41;;;14.44;79.11
70242;BME280;57631;52.218;0.108;2022-10-31T08:09:11;101547.43;;;14.83;78.63
70242;BME280;57631;52.218;0.108;2022-10-31T08:11:37;101544.18;;;14.71;79.96
70242;BME280;57631;52.218;0.108;2022-10-31T08:14:02;101545.26;;;12.19;89.53
70242;BME280;57631;52.218;0.108;2022-10-31T08:16:27;101545.64;;;13.44;87.02
70242;BME280;57631;52.218;0.108;2022-10-31T08:18:53;101539.85;;;14.01;82.25
70242;BME280;57631;52.218;0.108;2022-10-31T08:21:18;101538.28;;;14.06;81.44
70242;BME280;57631;52.218;0.108;2022-10-31T08:23:43;101536.64;;;14.38;82.49
70242;BME280;57631;52.218;0.108;2022-10-31T08:26:09;101537.19;;;13.92;84.46
70242;BME280;57631;52.218;0.108;2022-10-31T08:28:34;101534.66;;;14.10;81.70
70242;BME280;57631;52.218;0.108;2022-10-31T08:30:59;101530.60;;;14.25;82.50
70242;BME280;57631;52.218;0.108;2022-10-31T08:33:25;101530.41;;;14.09;84.26
70242;BME280;57631;52.218;0.108;2022-10-31T08:35:49;101530.68;;;14.08;84.31
70242;BME280;57631;52.218;0.108;2022-10-31T08:38:15;101523.85;;;13.87;82.43
70242;BME280;57631;52.218;0.108;2022-10-31T08:40:40;101523.67;;;14.69;80.18
70242;BME280;57631;52.218;0.108;2022-10-31T08:43:06;101525.88;;;14.85;78.94
70242;BME280;57631;52.218;0.108;2022-10-31T08:45:31;101531.76;;;12.66;87.20
70242;BME280;57631;52.218;0.108;2022-10-31T08:47:58;101524.57;;;13.73;83.20
70242;BME280;57631;52.218;0.108;2022-10-31T08:50:21;101526.13;;;14.39;79.71
70242;BME280;57631;52.218;0.108;2022-10-31T08:52:47;101526.99;;;15.01;77.87
70242;BME280;57631;52.218;0.108;2022-10-31T08:55:12;101526.22;;;15.51;77.50
70242;BME280;57631;52.218;0.108;2022-10-31T08:57:37;101523.33;;;14.93;78.49
70242;BME280;57631;52.218;0.108;2022-10-31T09:00:04;101524.05;;;13.32;86.46
70242;BME280;57631;52.218;0.108;2022-10-31T09:02:28;101517.87;;;14.97;78.15
70242;BME280;57631;52.218;0.108;2022-10-31T09:04:54;101519.58;;;15.39;76.55
70242;BME280;57631;52.218;0.108;2022-10-31T09:07:19;101510.83;;;16.17;73.69
70242;BME280;57631;52.218;0.108;2022-10-31T09:09:45;101510.71;;;15.69;75.74
70242;BME280;57631;52.218;0.108;2022-10-31T09:12:10;101510.81;;;15.13;75.52
70242;BME280;57631;52.218;0.108;2022-10-31T09:14:35;101510.98;;;15.88;74.35
70242;BME280;57631;52.218;0.108;2022-10-31T09:17:00;101502.86;;;16.80;72.34
70242;BME280;57631;52.218;0.108;2022-10-31T09:19:26;101503.71;;;15.34;75.29
70242;BME280;57631;52.218;0.108;2022-10-31T09:21:53;101496.50;;;16.97;70.90
70242;BME280;57631;52.218;0.108;2022-10-31T09:24:16;101496.77;;;16.14;73.56
70242;BME280;57631;52.218;0.108;2022-10-31T09:26:42;101494.08;;;16.29;72.83
70242;BME280;57631;52.218;0.108;2022-10-31T09:29:08;101493.87;;;17.06;69.75
70242;BME280;57631;52.218;0.108;2022-10-31T09:31:33;101491.45;;;16.03;70.88
70242;BME280;57631;52.218;0.108;2022-10-31T09:33:58;101493.72;;;14.40;77.79
70242;BME280;57631;52.218;0.108;2022-10-31T09:36:23;101489.84;;;14.14;80.08
70242;BME280;57631;52.218;0.108;2022-10-31T09:38:49;101484.75;;;14.27;80.35
70242;BME280;57631;52.218;0.108;2022-10-31T09:41:19;101484.64;;;15.87;74.47
70242;BME280;57631;52.218;0.108;2022-10-31T09:43:46;101480.92;;;16.93;71.18
70242;BME280;57631;52.218;0.108;2022-10-31T09:46:09;101478.54;;;16.64;71.95
70242;BME280;57631;52.218;0.108;2022-10-31T09:48:37;101477.57;;;17.12;71.96
70242;BME280;57631;52.218;0.108;2022-10-31T09:50:59;101474.12;;;15.94;73.51
70242;BME280;57631;52.218;0.108;2022-10-31T09:53:25;101476.41;;;14.90;79.28
70242;BME280;57631;52.218;0.108;2022-10-31T09:55:48;101474.03;;;15.02;79.24
70242;BME280;57631;52.218;0.108;2022-10-31T09:58:15;101471.68;;;15.89;75.52
70242;BME280;57631;52.218;0.108;2022-10-31T10:00:37;101470.64;;;14.95;78.55
70242;BME280;57631;52.218;0.108;2022-10-31T10:03:10;101465.07;;;15.46;76.62
70242;BME280;57631;52.218;0.108;2022-10-31T10:05:34;101461.97;;;16.35;74.42
70242;BME280;57631;52.218;0.108;2022-10-31T10:07:58;101463.79;;;15.74;74.87
70242;BME280;57631;52.218;0.108;2022-10-31T10:10:25;101458.37;;;16.21;74.18
70242;BME280;57631;52.218;0.108;2022-10-31T10:15:20;101450.72;;;16.11;74.39
70242;BME280;57631;52.218;0.108;2022-10-31T10:17:40;101451.89;;;15.23;75.84
70242;BME280;57631;52.218;0.108;2022-10-31T10:20:15;101454.38;;;16.50;73.44
70242;BME280;57631;52.218;0.108;2022-10-31T10:22:30;101456.43;;;16.10;72.75
70242;BME280;57631;52.218;0.108;2022-10-31T10:27:21;101455.66;;;14.51;78.58
70242;BME280;57631;52.218;0.108;2022-10-31T10:29:46;101444.11;;;15.75;73.64
70242;BME280;57631;52.218;0.108;2022-10-31T10:32:11;101446.65;;;15.41;75.51
70242;BME280;57631;52.218;0.108;2022-10-31T10:34:35;101442.80;;;16.68;70.62
70242;BME280;57631;52.218;0.108;2022-10-31T10:37:01;101436.58;;;17.03;70.31
70242;BME280;57631;52.218;0.108;2022-10-31T10:39:25;101433.42;;;17.42;67.95
70242;BME280;57631;52.218;0.108;2022-10-31T10:41:49;101435.71;;;15.80;71.75
70242;BME280;57631;52.218;0.108;2022-10-31T10:44:14;101425.25;;;16.63;69.65
70242;BME280;57631;52.218;0.108;2022-10-31T10:46:42;101416.11;;;16.71;68.25
70242;BME280;57631;52.218;0.108;2022-10-31T10:49:13;101415.16;;;16.64;68.78
70242;BME280;57631;52.218;0.108;2022-10-31T10:51:37;101418.04;;;16.35;69.14
70242;BME280;57631;52.218;0.108;2022-10-31T10:54:06;101420.70;;;16.46;70.66
70242;BME280;57631;52.218;0.108;2022-10-31T10:56:30;101419.49;;;16.04;70.20
70242;BME280;57631;52.218;0.108;2022-10-31T10:58:45;101416.23;;;16.11;69.44
70242;BME280;57631;52.218;0.108;2022-10-31T11:01:12;101405.80;;;17.08;66.77
70242;BME280;57631;52.218;0.108;2022-10-31T11:03:36;101400.38;;;17.76;63.96
70242;BME280;57631;52.218;0.108;2022-10-31T11:06:01;101395.88;;;17.79;64.98
70242;BME280;57631;52.218;0.108;2022-10-31T11:08:28;101390.35;;;16.18;70.01
70242;BME280;57631;52.218;0.108;2022-10-31T11:10:58;101384.20;;;17.93;63.74
70242;BME280;57631;52.218;0.108;2022-10-31T11:13:22;101388.68;;;16.43;66.96
70242;BME280;57631;52.218;0.108;2022-10-31T11:15:50;101380.66;;;16.80;66.35
70242;BME280;57631;52.218;0.108;2022-10-31T11:18:19;101379.46;;;16.35;68.62
70242;BME280;57631;52.218;0.108;2022-10-31T11:20:35;101382.74;;;16.49;69.51
70242;BME280;57631;52.218;0.108;2022-10-31T11:23:10;101374.97;;;17.50;66.00
70242;BME280;57631;52.218;0.108;2022-10-31T11:25:25;101364.50;;;18.21;63.35
70242;BME280;57631;52.218;0.108;2022-10-31T11:30:15;101361.05;;;19.07;59.81
70242;BME280;57631;52.218;0.108;2022-10-31T11:32:45;101370.41;;;17.55;63.08
70242;BME280;57631;52.218;0.108;2022-10-31T11:35:10;101365.11;;;17.03;65.14
70242;BME280;57631;52.218;0.108;2022-10-31T11:37:33;101358.45;;;17.77;63.28
70242;BME280;57631;52.218;0.108;2022-10-31T11:39:57;101363.21;;;18.46;60.38
70242;BME280;57631;52.218;0.108;2022-10-31T11:42:23;101357.60;;;17.63;61.52
70242;BME280;57631;52.218;0.108;2022-10-31T11:44:47;101355.63;;;16.36;65.01
70242;BME280;57631;52.218;0.108;2022-10-31T11:47:14;101347.86;;;16.98;62.96
70242;BME280;57631;52.218;0.108;2022-10-31T11:49:39;101336.14;;;17.17;63.89
70242;BME280;57631;52.218;0.108;2022-10-31T11:52:06;101333.79;;;16.58;63.70
70242;BME280;57631;52.218;0.108;2022-10-31T11:54:29;101336.43;;;16.57;64.10
70242;BME280;57631;52.218;0.108;2022-10-31T11:56:53;101337.36;;;15.16;67.91
70242;BME280;57631;52.218;0.108;2022-10-31T11:59:25;101330.92;;;16.18;65.54
70242;BME280;57631;52.218;0.108;2022-10-31T12:01:47;101322.95;;;16.00;66.24
70242;BME280;57631;52.218;0.108;2022-10-31T12:04:10;101313.80;;;16.88;64.88
70242;BME280;57631;52.218;0.108;2022-10-31T12:06:36;101311.61;;;18.39;59.61
70242;BME280;57631;52.218;0.108;2022-10-31T12:09:00;101306.62;;;20.20;55.26
70242;BME280;57631;52.218;0.108;2022-10-31T12:11:34;101309.51;;;18.84;55.82
70242;BME280;57631;52.218;0.108;2022-10-31T12:13:59;101301.10;;;20.06;53.36
70242;BME280;57631;52.218;0.108;2022-10-31T12:16:20;101303.41;;;18.78;55.78
70242;BME280;57631;52.218;0.108;2022-10-31T12:18:53;101289.12;;;20.28;52.99
70242;BME280;57631;52.218;0.108;2022-10-31T12:21:19;101289.57;;;18.14;59.27
70242;BME280;57631;52.218;0.108;2022-10-31T12:23:41;101284.91;;;19.69;54.55
70242;BME280;57631;52.218;0.108;2022-10-31T12:26:05;101289.39;;;19.38;54.78
70242;BME280;57631;52.218;0.108;2022-10-31T12:30:57;101277.88;;;18.45;57.85
70242;BME280;57631;52.218;0.108;2022-10-31T12:33:23;101266.22;;;18.06;58.32
70242;BME280;57631;52.218;0.108;2022-10-31T12:35:45;101267.32;;;18.60;58.49
70242;BME280;57631;52.218;0.108;2022-10-31T12:38:18;101256.78;;;19.37;55.09
70242;BME280;57631;52.218;0.108;2022-10-31T12:40:40;101249.45;;;21.74;50.34
70242;BME280;57631;52.218;0.108;2022-10-31T12:43:04;101233.65;;;20.89;50.51
70242;BME280;57631;52.218;0.108;2022-10-31T12:45:33;101223.04;;;21.50;48.93
70242;BME280;57631;52.218;0.108;2022-10-31T12:47:58;101219.57;;;22.28;46.46
70242;BME280;57631;52.218;0.108;2022-10-31T12:50:21;101234.77;;;19.93;49.95
70242;BME280;57631;52.218;0.108;2022-10-31T12:52:46;101223.68;;;18.78;53.52
70242;BME280;57631;52.218;0.108;2022-10-31T12:55:13;101220.23;;;19.23;52.73
70242;BME280;57631;52.218;0.108;2022-10-31T12:57:31;101213.44;;;21.77;49.11